sensor_id;sensor_type;location;lat;lon;timestamp;temperature;humidity
12307;DHT22;6216;51.146;7.008;2022-11-21T00:01:14;8.70;99.90
12307;DHT22;6216;51.146;7.008;2022-11-21T00:03:44;8.70;99.90
12307;DHT22;6216;51.146;7.008;2022-11-21T00:06:15;8.70;99.90
12307;DHT22;6216;51.146;7.008;2022-11-21T00:08:52;8.70;99.90
12307;DHT22;6216;51.146;7.008;2022-11-21T00:11:23;8.70;99.90
12307;DHT22;6216;51.146;7.008;2022-11-21T00:13:51;8.70;99.90
12307;DHT22;6216;51.146;7.008;2022-11-21T00:16:18;8.70;99.90
12307;DHT22;6216;51.146;7.008;2022-11-21T00:18:46;8.70;99.90
12307;DHT22;6216;51.146;7.008;2022-11-21T00:21:16;8.80;99.90
12307;DHT22;6216;51.146;7.008;2022-11-21T00:23:45;8.80;99.90
12307;DHT22;6216;51.146;7.008;2022-11-21T00:26:14;8.80;99.90
12307;DHT22;6216;51.146;7.008;2022-11-21T00:28:44;8.80;99.90
12307;DHT22;6216;51.146;7.008;2022-11-21T00:31:19;8.80;99.90
12307;DHT22;6216;51.146;7.008;2022-11-21T00:33:47;8.80;99.90
12307;DHT22;6216;51.146;7.008;2022-11-21T00:36:15;8.80;99.90
12307;DHT22;6216;51.146;7.008;2022-11-21T00:38:43;8.80;99.90
12307;DHT22;6216;51.146;7.008;2022-11-21T00:41:11;8.80;99.90
12307;DHT22;6216;51.146;7.008;2022-11-21T00:43:39;8.80;99.90
12307;DHT22;6216;51.146;7.008;2022-11-21T00:46:08;8.90;99.90
12307;DHT22;6216;51.146;7.008;2022-11-21T00:48:36;8.90;99.90
12307;DHT22;6216;51.146;7.008;2022-11-21T00:51:04;9.00;99.90
12307;DHT22;6216;51.146;7.008;2022-11-21T00:53:31;9.00;99.90
12307;DHT22;6216;51.146;7.008;2022-11-21T00:55:59;9.00;99.90
12307;DHT22;6216;51.146;7.008;2022-11-21T00:58:27;9.00;99.90
12307;DHT22;6216;51.146;7.008;2022-11-21T01:01:02;9.00;99.90
12307;DHT22;6216;51.146;7.008;2022-11-21T01:03:33;8.90;99.90
12307;DHT22;6216;51.146;7.008;2022-11-21T01:06:02;8.90;99.90
12307;DHT22;6216;51.146;7.008;2022-11-21T01:08:31;8.90;99.90
12307;DHT22;6216;51.146;7.008;2022-11-21T01:11:02;8.80;99.90
12307;DHT22;6216;51.146;7.008;2022-11-21T01:13:30;8.80;99.90
12307;DHT22;6216;51.146;7.008;2022-11-21T01:16:02;8.80;99.90
12307;DHT22;6216;51.146;7.008;2022-11-21T01:18:32;8.90;99.90
12307;DHT22;6216;51.146;7.008;2022-11-21T01:21:01;8.90;99.90
12307;DHT22;6216;51.146;7.008;2022-11-21T01:23:30;8.80;99.90
12307;DHT22;6216;51.146;7.008;2022-11-21T01:26:00;8.80;99.90
12307;DHT22;6216;51.146;7.008;2022-11-21T01:28:29;8.80;99.90
12307;DHT22;6216;51.146;7.008;2022-11-21T01:31:02;8.80;99.90
12307;DHT22;6216;51.146;7.008;2022-11-21T01:33:30;8.80;99.90
12307;DHT22;6216;51.146;7.008;2022-11-21T01:36:07;8.80;99.90
12307;DHT22;6216;51.146;7.008;2022-11-21T01:38:35;8.80;99.90
12307;DHT22;6216;51.146;7.008;2022-11-21T01:41:03;8.80;99.90
12307;DHT22;6216;51.146;7.008;2022-11-21T01:43:31;8.80;99.90
12307;DHT22;6216;51.146;7.008;2022-11-21T01:45:59;8.80;99.90
12307;DHT22;6216;51.146;7.008;2022-11-21T01:48:32;8.90;99.90
12307;DHT22;6216;51.146;7.008;2022-11-21T01:51:08;8.80;99.90
12307;DHT22;6216;51.146;7.008;2022-11-21T01:53:37;8.80;99.90
12307;DHT22;6216;51.146;7.008;2022-11-21T01:56:07;8.80;99.90
12307;DHT22;6216;51.146;7.008;2022-11-21T01:58:36;8.80;99.90
12307;DHT22;6216;51.146;7.008;2022-11-21T02:01:05;8.80;99.90
12307;DHT22;6216;51.146;7.008;2022-11-21T02:03:35;8.80;99.90
12307;DHT22;6216;51.146;7.008;2022-11-21T02:06:06;8.80;99.90
12307;DHT22;6216;51.146;7.008;2022-11-21T02:08:36;8.80;99.90
12307;DHT22;6216;51.146;7.008;2022-11-21T02:11:10;8.80;99.90
12307;DHT22;6216;51.146;7.008;2022-11-21T02:13:39;8.80;99.90
12307;DHT22;6216;51.146;7.008;2022-11-21T02:16:08;8.80;99.90
12307;DHT22;6216;51.146;7.008;2022-11-21T02:18:35;8.80;99.90
12307;DHT22;6216;51.146;7.008;2022-11-21T02:21:12;8.80;99.90
12307;DHT22;6216;51.146;7.008;2022-11-21T02:23:49;8.80;99.90
12307;DHT22;6216;51.146;7.008;2022-11-21T02:26:27;8.70;99.90
12307;DHT22;6216;51.146;7.008;2022-11-21T02:28:55;8.70;99.90
12307;DHT22;6216;51.146;7.008;2022-11-21T02:31:23;8.70;99.90
12307;DHT22;6216;51.146;7.008;2022-11-21T02:33:51;8.70;99.90
12307;DHT22;6216;51.146;7.008;2022-11-21T02:36:44;8.70;99.90
12307;DHT22;6216;51.146;7.008;2022-11-21T02:39:17;8.70;99.90
12307;DHT22;6216;51.146;7.008;2022-11-21T02:41:58;8.70;99.90
12307;DHT22;6216;51.146;7.008;2022-11-21T02:44:31;8.70;99.90
12307;DHT22;6216;51.146;7.008;2022-11-21T02:47:01;8.70;99.90
12307;DHT22;6216;51.146;7.008;2022-11-21T02:49:37;8.70;99.90
12307;DHT22;6216;51.146;7.008;2022-11-21T02:52:07;8.70;99.90
12307;DHT22;6216;51.146;7.008;2022-11-21T02:54:35;8.70;99.90
12307;DHT22;6216;51.146;7.008;2022-11-21T02:57:04;8.60;99.90
12307;DHT22;6216;51.146;7.008;2022-11-21T02:59:34;8.60;99.90
12307;DHT22;6216;51.146;7.008;2022-11-21T03:02:02;8.60;99.90
12307;DHT22;6216;51.146;7.008;2022-11-21T03:04:30;8.60;99.90
12307;DHT22;6216;51.146;7.008;2022-11-21T03:06:58;8.60;99.90
12307;DHT22;6216;51.146;7.008;2022-11-21T03:09:26;8.60;99.90
12307;DHT22;6216;51.146;7.008;2022-11-21T03:11:54;8.60;99.90
12307;DHT22;6216;51.146;7.008;2022-11-21T03:14:23;8.60;99.90
12307;DHT22;6216;51.146;7.008;2022-11-21T03:16:51;8.60;99.90
12307;DHT22;6216;51.146;7.008;2022-11-21T03:19:19;8.60;99.90
12307;DHT22;6216;51.146;7.008;2022-11-21T03:21:47;8.60;99.90
12307;DHT22;6216;51.146;7.008;2022-11-21T03:24:15;8.60;99.90
12307;DHT22;6216;51.146;7.008;2022-11-21T03:26:43;8.60;99.90
12307;DHT22;6216;51.146;7.008;2022-11-21T03:29:10;8.60;99.90
12307;DHT22;6216;51.146;7.008;2022-11-21T03:31:40;8.60;99.90
12307;DHT22;6216;51.146;7.008;2022-11-21T03:34:08;8.60;99.90
12307;DHT22;6216;51.146;7.008;2022-11-21T03:36:36;8.60;99.90
12307;DHT22;6216;51.146;7.008;2022-11-21T03:39:04;8.60;99.90
12307;DHT22;6216;51.146;7.008;2022-11-21T03:41:31;8.60;99.90
12307;DHT22;6216;51.146;7.008;2022-11-21T03:44:02;8.60;99.90
12307;DHT22;6216;51.146;7.008;2022-11-21T03:46:31;8.60;99.90
12307;DHT22;6216;51.146;7.008;2022-11-21T03:49:01;8.60;99.90
12307;DHT22;6216;51.146;7.008;2022-11-21T03:51:29;8.60;99.90
12307;DHT22;6216;51.146;7.008;2022-11-21T03:53:57;8.50;99.90
12307;DHT22;6216;51.146;7.008;2022-11-21T03:56:25;8.50;99.90
12307;DHT22;6216;51.146;7.008;2022-11-21T03:58:54;8.50;99.90
12307;DHT22;6216;51.146;7.008;2022-11-21T04:01:22;8.50;99.90
12307;DHT22;6216;51.146;7.008;2022-11-21T04:03:50;8.50;99.90
12307;DHT22;6216;51.146;7.008;2022-11-21T04:06:21;8.50;99.90
12307;DHT22;6216;51.146;7.008;2022-11-21T04:08:49;8.50;99.90
12307;DHT22;6216;51.146;7.008;2022-11-21T04:11:17;8.50;99.90
12307;DHT22;6216;51.146;7.008;2022-11-21T04:13:49;8.50;99.90
12307;DHT22;6216;51.146;7.008;2022-11-21T04:16:17;8.50;99.90
12307;DHT22;6216;51.146;7.008;2022-11-21T04:18:44;8.50;99.90
12307;DHT22;6216;51.146;7.008;2022-11-21T04:21:12;8.50;99.90
12307;DHT22;6216;51.146;7.008;2022-11-21T04:23:42;8.50;99.90
12307;DHT22;6216;51.146;7.008;2022-11-21T04:26:09;8.50;99.90
12307;DHT22;6216;51.146;7.008;2022-11-21T04:28:37;8.50;99.90
12307;DHT22;6216;51.146;7.008;2022-11-21T04:31:06;8.50;99.90
12307;DHT22;6216;51.146;7.008;2022-11-21T04:33:37;8.50;99.90
12307;DHT22;6216;51.146;7.008;2022-11-21T04:36:05;8.50;99.90
12307;DHT22;6216;51.146;7.008;2022-11-21T04:38:33;8.50;99.90
12307;DHT22;6216;51.146;7.008;2022-11-21T04:41:02;8.40;99.90
12307;DHT22;6216;51.146;7.008;2022-11-21T04:43:30;8.40;99.90
12307;DHT22;6216;51.146;7.008;2022-11-21T04:45:58;8.40;99.90
12307;DHT22;6216;51.146;7.008;2022-11-21T04:48:26;8.40;99.90
12307;DHT22;6216;51.146;7.008;2022-11-21T04:50:54;8.50;99.90
12307;DHT22;6216;51.146;7.008;2022-11-21T04:53:22;8.50;99.90
12307;DHT22;6216;51.146;7.008;2022-11-21T04:55:50;8.50;99.90
12307;DHT22;6216;51.146;7.008;2022-11-21T04:58:19;8.50;99.90
12307;DHT22;6216;51.146;7.008;2022-11-21T05:00:47;8.50;99.90
12307;DHT22;6216;51.146;7.008;2022-11-21T05:03:15;8.40;99.90
12307;DHT22;6216;51.146;7.008;2022-11-21T05:05:44;8.40;99.90
12307;DHT22;6216;51.146;7.008;2022-11-21T05:08:12;8.40;99.90
12307;DHT22;6216;51.146;7.008;2022-11-21T05:10:42;8.40;99.90
12307;DHT22;6216;51.146;7.008;2022-11-21T05:13:28;8.40;99.90
12307;DHT22;6216;51.146;7.008;2022-11-21T05:15:56;8.40;99.90
12307;DHT22;6216;51.146;7.008;2022-11-21T05:18:24;8.40;99.90
12307;DHT22;6216;51.146;7.008;2022-11-21T05:20:52;8.40;99.90
12307;DHT22;6216;51.146;7.008;2022-11-21T05:23:20;8.40;99.90
12307;DHT22;6216;51.146;7.008;2022-11-21T05:25:48;8.40;99.90
12307;DHT22;6216;51.146;7.008;2022-11-21T05:28:16;8.40;99.90
12307;DHT22;6216;51.146;7.008;2022-11-21T05:30:45;8.40;99.90
12307;DHT22;6216;51.146;7.008;2022-11-21T05:33:13;8.40;99.90
12307;DHT22;6216;51.146;7.008;2022-11-21T05:35:41;8.40;99.90
12307;DHT22;6216;51.146;7.008;2022-11-21T05:38:09;8.40;99.90
12307;DHT22;6216;51.146;7.008;2022-11-21T05:40:37;8.40;99.90
12307;DHT22;6216;51.146;7.008;2022-11-21T05:43:05;8.40;99.90
12307;DHT22;6216;51.146;7.008;2022-11-21T05:46:18;8.40;99.90
12307;DHT22;6216;51.146;7.008;2022-11-21T05:48:46;8.40;99.90
12307;DHT22;6216;51.146;7.008;2022-11-21T05:51:15;8.30;99.90
12307;DHT22;6216;51.146;7.008;2022-11-21T05:53:44;8.30;99.90
12307;DHT22;6216;51.146;7.008;2022-11-21T05:56:13;8.30;99.90
12307;DHT22;6216;51.146;7.008;2022-11-21T05:58:41;8.30;99.90
12307;DHT22;6216;51.146;7.008;2022-11-21T06:01:11;8.30;99.90
12307;DHT22;6216;51.146;7.008;2022-11-21T06:03:42;8.30;99.90
12307;DHT22;6216;51.146;7.008;2022-11-21T06:06:10;8.30;99.90
12307;DHT22;6216;51.146;7.008;2022-11-21T06:08:40;8.30;99.90
12307;DHT22;6216;51.146;7.008;2022-11-21T06:11:10;8.30;99.90
12307;DHT22;6216;51.146;7.008;2022-11-21T06:13:38;8.30;99.90
12307;DHT22;6216;51.146;7.008;2022-11-21T06:16:08;8.30;99.90
12307;DHT22;6216;51.146;7.008;2022-11-21T06:18:38;8.30;99.90
12307;DHT22;6216;51.146;7.008;2022-11-21T06:21:09;8.30;99.90
12307;DHT22;6216;51.146;7.008;2022-11-21T06:23:39;8.30;99.90
12307;DHT22;6216;51.146;7.008;2022-11-21T06:26:10;8.30;99.90
12307;DHT22;6216;51.146;7.008;2022-11-21T06:28:39;8.30;99.90
12307;DHT22;6216;51.146;7.008;2022-11-21T06:31:08;8.30;99.90
12307;DHT22;6216;51.146;7.008;2022-11-21T06:33:37;8.30;99.90
12307;DHT22;6216;51.146;7.008;2022-11-21T06:36:09;8.30;99.90
12307;DHT22;6216;51.146;7.008;2022-11-21T06:38:38;8.30;99.90
12307;DHT22;6216;51.146;7.008;2022-11-21T06:41:09;8.30;99.90
12307;DHT22;6216;51.146;7.008;2022-11-21T06:43:37;8.30;99.90
12307;DHT22;6216;51.146;7.008;2022-11-21T06:46:06;8.30;99.90
12307;DHT22;6216;51.146;7.008;2022-11-21T06:48:34;8.30;99.90
12307;DHT22;6216;51.146;7.008;2022-11-21T06:51:04;8.30;99.90
12307;DHT22;6216;51.146;7.008;2022-11-21T06:53:34;8.40;99.90
12307;DHT22;6216;51.146;7.008;2022-11-21T06:56:02;8.40;99.90
12307;DHT22;6216;51.146;7.008;2022-11-21T06:58:30;8.40;99.90
12307;DHT22;6216;51.146;7.008;2022-11-21T07:01:03;8.40;99.90
12307;DHT22;6216;51.146;7.008;2022-11-21T07:03:31;8.40;99.90
12307;DHT22;6216;51.146;7.008;2022-11-21T07:05:59;8.40;99.90
12307;DHT22;6216;51.146;7.008;2022-11-21T07:08:27;8.40;99.90
12307;DHT22;6216;51.146;7.008;2022-11-21T07:11:02;8.40;99.90
12307;DHT22;6216;51.146;7.008;2022-11-21T07:13:50;8.40;99.90
12307;DHT22;6216;51.146;7.008;2022-11-21T07:16:18;8.40;99.90
12307;DHT22;6216;51.146;7.008;2022-11-21T07:18:45;8.40;99.90
12307;DHT22;6216;51.146;7.008;2022-11-21T07:21:13;8.40;99.90
12307;DHT22;6216;51.146;7.008;2022-11-21T07:23:41;8.40;99.90
12307;DHT22;6216;51.146;7.008;2022-11-21T07:26:10;8.40;99.90
12307;DHT22;6216;51.146;7.008;2022-11-21T07:28:38;8.50;99.90
12307;DHT22;6216;51.146;7.008;2022-11-21T07:31:08;8.50;99.90
12307;DHT22;6216;51.146;7.008;2022-11-21T07:33:40;8.50;99.90
12307;DHT22;6216;51.146;7.008;2022-11-21T07:36:09;8.50;99.90
12307;DHT22;6216;51.146;7.008;2022-11-21T07:38:38;8.50;99.90
12307;DHT22;6216;51.146;7.008;2022-11-21T07:41:06;8.50;99.90
12307;DHT22;6216;51.146;7.008;2022-11-21T07:43:37;8.50;99.90
12307;DHT22;6216;51.146;7.008;2022-11-21T07:46:05;8.50;99.90
12307;DHT22;6216;51.146;7.008;2022-11-21T07:48:33;8.50;99.90
12307;DHT22;6216;51.146;7.008;2022-11-21T07:51:03;8.50;99.90
12307;DHT22;6216;51.146;7.008;2022-11-21T07:53:31;8.50;99.90
12307;DHT22;6216;51.146;7.008;2022-11-21T07:55:59;8.50;99.90
12307;DHT22;6216;51.146;7.008;2022-11-21T07:58:27;8.50;99.90
12307;DHT22;6216;51.146;7.008;2022-11-21T08:00:56;8.60;99.90
12307;DHT22;6216;51.146;7.008;2022-11-21T08:03:24;8.60;99.90
12307;DHT22;6216;51.146;7.008;2022-11-21T08:05:52;8.60;99.90
12307;DHT22;6216;51.146;7.008;2022-11-21T08:08:20;8.60;99.90
12307;DHT22;6216;51.146;7.008;2022-11-21T08:10:48;8.60;99.90
12307;DHT22;6216;51.146;7.008;2022-11-21T08:13:17;8.50;99.90
12307;DHT22;6216;51.146;7.008;2022-11-21T08:15:45;8.60;99.90
12307;DHT22;6216;51.146;7.008;2022-11-21T08:18:18;8.50;99.90
12307;DHT22;6216;51.146;7.008;2022-11-21T08:20:46;8.50;99.90
12307;DHT22;6216;51.146;7.008;2022-11-21T08:23:15;8.50;99.90
12307;DHT22;6216;51.146;7.008;2022-11-21T08:25:43;8.60;99.90
12307;DHT22;6216;51.146;7.008;2022-11-21T08:28:11;8.60;99.90
12307;DHT22;6216;51.146;7.008;2022-11-21T08:30:40;8.60;99.90
12307;DHT22;6216;51.146;7.008;2022-11-21T08:33:08;8.60;99.90
12307;DHT22;6216;51.146;7.008;2022-11-21T08:35:37;8.60;99.90
12307;DHT22;6216;51.146;7.008;2022-11-21T08:38:06;8.60;99.90
12307;DHT22;6216;51.146;7.008;2022-11-21T08:40:34;8.60;99.90
12307;DHT22;6216;51.146;7.008;2022-11-21T08:43:04;8.60;99.90
12307;DHT22;6216;51.146;7.008;2022-11-21T08:45:33;8.70;99.90
12307;DHT22;6216;51.146;7.008;2022-11-21T08:48:02;8.70;99.90
12307;DHT22;6216;51.146;7.008;2022-11-21T08:50:32;8.70;99.90
12307;DHT22;6216;51.146;7.008;2022-11-21T08:53:01;8.70;99.90
12307;DHT22;6216;51.146;7.008;2022-11-21T08:55:30;8.70;99.90
12307;DHT22;6216;51.146;7.008;2022-11-21T08:57:58;8.70;99.90
12307;DHT22;6216;51.146;7.008;2022-11-21T09:00:26;8.70;99.90
12307;DHT22;6216;51.146;7.008;2022-11-21T09:02:54;8.70;99.90
12307;DHT22;6216;51.146;7.008;2022-11-21T09:05:22;8.70;99.90
12307;DHT22;6216;51.146;7.008;2022-11-21T09:07:55;8.70;99.90
12307;DHT22;6216;51.146;7.008;2022-11-21T09:10:28;8.70;99.90
12307;DHT22;6216;51.146;7.008;2022-11-21T09:12:57;8.60;99.90
12307;DHT22;6216;51.146;7.008;2022-11-21T09:15:25;8.70;99.90
12307;DHT22;6216;51.146;7.008;2022-11-21T09:18:11;8.70;99.90
12307;DHT22;6216;51.146;7.008;2022-11-21T09:20:40;8.70;99.90
12307;DHT22;6216;51.146;7.008;2022-11-21T09:23:10;8.70;99.90
12307;DHT22;6216;51.146;7.008;2022-11-21T09:25:40;8.70;99.90
12307;DHT22;6216;51.146;7.008;2022-11-21T09:28:11;8.70;99.90
12307;DHT22;6216;51.146;7.008;2022-11-21T09:30:40;8.70;99.90
12307;DHT22;6216;51.146;7.008;2022-11-21T09:33:10;8.70;99.90
12307;DHT22;6216;51.146;7.008;2022-11-21T09:35:39;8.70;99.90
12307;DHT22;6216;51.146;7.008;2022-11-21T09:38:07;8.70;99.90
12307;DHT22;6216;51.146;7.008;2022-11-21T09:40:35;8.70;99.90
12307;DHT22;6216;51.146;7.008;2022-11-21T09:46:07;8.80;99.90
12307;DHT22;6216;51.146;7.008;2022-11-21T09:48:45;8.80;99.90
12307;DHT22;6216;51.146;7.008;2022-11-21T09:51:16;8.90;99.90
12307;DHT22;6216;51.146;7.008;2022-11-21T09:53:52;9.00;99.90
12307;DHT22;6216;51.146;7.008;2022-11-21T09:56:22;9.10;99.90
12307;DHT22;6216;51.146;7.008;2022-11-21T09:59:04;9.10;99.90
12307;DHT22;6216;51.146;7.008;2022-11-21T10:01:37;9.10;99.90
12307;DHT22;6216;51.146;7.008;2022-11-21T10:04:05;9.10;99.90
12307;DHT22;6216;51.146;7.008;2022-11-21T10:06:38;9.20;99.90
12307;DHT22;6216;51.146;7.008;2022-11-21T10:09:19;9.20;99.90
12307;DHT22;6216;51.146;7.008;2022-11-21T10:11:56;9.30;99.90
12307;DHT22;6216;51.146;7.008;2022-11-21T10:14:57;9.30;99.90
12307;DHT22;6216;51.146;7.008;2022-11-21T10:17:33;9.30;99.90
12307;DHT22;6216;51.146;7.008;2022-11-21T10:20:26;9.30;99.90
12307;DHT22;6216;51.146;7.008;2022-11-21T10:23:10;9.20;99.90
12307;DHT22;6216;51.146;7.008;2022-11-21T10:25:42;9.20;99.90
12307;DHT22;6216;51.146;7.008;2022-11-21T10:28:19;9.20;99.90
12307;DHT22;6216;51.146;7.008;2022-11-21T10:30:53;9.20;99.90
12307;DHT22;6216;51.146;7.008;2022-11-21T10:33:26;9.20;99.90
12307;DHT22;6216;51.146;7.008;2022-11-21T10:35:58;9.00;99.90
12307;DHT22;6216;51.146;7.008;2022-11-21T10:38:28;9.10;99.90
12307;DHT22;6216;51.146;7.008;2022-11-21T10:41:02;9.10;99.90
12307;DHT22;6216;51.146;7.008;2022-11-21T10:43:35;9.00;99.90
12307;DHT22;6216;51.146;7.008;2022-11-21T10:46:24;9.00;99.90
12307;DHT22;6216;51.146;7.008;2022-11-21T10:48:55;9.00;99.90
12307;DHT22;6216;51.146;7.008;2022-11-21T10:51:35;8.90;99.90
12307;DHT22;6216;51.146;7.008;2022-11-21T10:54:05;9.00;99.90
12307;DHT22;6216;51.146;7.008;2022-11-21T10:56:53;9.00;99.90
12307;DHT22;6216;51.146;7.008;2022-11-21T10:59:24;9.00;99.90
12307;DHT22;6216;51.146;7.008;2022-11-21T11:02:20;9.00;99.90
12307;DHT22;6216;51.146;7.008;2022-11-21T11:04:48;9.10;99.90
12307;DHT22;6216;51.146;7.008;2022-11-21T11:07:36;9.10;99.90
12307;DHT22;6216;51.146;7.008;2022-11-21T11:10:14;9.10;99.90
12307;DHT22;6216;51.146;7.008;2022-11-21T11:12:42;9.20;99.90
12307;DHT22;6216;51.146;7.008;2022-11-21T11:16:05;9.20;99.90
12307;DHT22;6216;51.146;7.008;2022-11-21T11:18:38;9.30;99.90
12307;DHT22;6216;51.146;7.008;2022-11-21T11:21:16;9.30;99.90
12307;DHT22;6216;51.146;7.008;2022-11-21T11:23:45;9.30;99.90
12307;DHT22;6216;51.146;7.008;2022-11-21T11:26:24;9.40;99.90
12307;DHT22;6216;51.146;7.008;2022-11-21T11:29:06;9.50;99.90
12307;DHT22;6216;51.146;7.008;2022-11-21T11:31:42;9.50;99.90
12307;DHT22;6216;51.146;7.008;2022-11-21T11:34:13;9.50;99.90
12307;DHT22;6216;51.146;7.008;2022-11-21T11:36:53;9.60;99.90
12307;DHT22;6216;51.146;7.008;2022-11-21T11:39:34;9.70;99.90
12307;DHT22;6216;51.146;7.008;2022-11-21T11:42:17;9.80;99.90
12307;DHT22;6216;51.146;7.008;2022-11-21T11:45:14;9.90;99.90
12307;DHT22;6216;51.146;7.008;2022-11-21T11:48:02;10.00;99.90
12307;DHT22;6216;51.146;7.008;2022-11-21T11:50:36;10.10;99.90
12307;DHT22;6216;51.146;7.008;2022-11-21T11:53:10;10.10;99.90
12307;DHT22;6216;51.146;7.008;2022-11-21T11:55:44;10.20;99.90
12307;DHT22;6216;51.146;7.008;2022-11-21T11:58:19;10.20;99.90
12307;DHT22;6216;51.146;7.008;2022-11-21T12:00:53;10.20;99.90
12307;DHT22;6216;51.146;7.008;2022-11-21T12:03:30;10.20;99.90
12307;DHT22;6216;51.146;7.008;2022-11-21T12:06:04;10.10;99.90
12307;DHT22;6216;51.146;7.008;2022-11-21T12:08:40;10.10;99.90
12307;DHT22;6216;51.146;7.008;2022-11-21T12:11:17;10.10;99.90
12307;DHT22;6216;51.146;7.008;2022-11-21T12:14:12;10.30;99.90
12307;DHT22;6216;51.146;7.008;2022-11-21T12:17:04;10.80;99.90
12307;DHT22;6216;51.146;7.008;2022-11-21T12:19:36;11.70;99.90
12307;DHT22;6216;51.146;7.008;2022-11-21T12:22:09;12.30;99.90
12307;DHT22;6216;51.146;7.008;2022-11-21T12:24:38;13.00;99.90
12307;DHT22;6216;51.146;7.008;2022-11-21T12:27:20;13.50;99.90
12307;DHT22;6216;51.146;7.008;2022-11-21T12:30:00;14.10;99.90
12307;DHT22;6216;51.146;7.008;2022-11-21T12:32:49;14.50;99.90
12307;DHT22;6216;51.146;7.008;2022-11-21T12:35:42;15.10;99.90
12307;DHT22;6216;51.146;7.008;2022-11-21T12:38:27;15.20;99.90
12307;DHT22;6216;51.146;7.008;2022-11-21T12:41:04;14.90;99.90
12307;DHT22;6216;51.146;7.008;2022-11-21T12:44:07;14.80;99.90
12307;DHT22;6216;51.146;7.008;2022-11-21T12:46:46;15.50;99.90
12307;DHT22;6216;51.146;7.008;2022-11-21T12:49:24;16.40;99.90
12307;DHT22;6216;51.146;7.008;2022-11-21T12:52:22;16.50;99.90
12307;DHT22;6216;51.146;7.008;2022-11-21T12:55:30;15.90;99.90
12307;DHT22;6216;51.146;7.008;2022-11-21T12:58:19;15.30;99.90
12307;DHT22;6216;51.146;7.008;2022-11-21T13:00:57;14.80;99.90
12307;DHT22;6216;51.146;7.008;2022-11-21T13:03:52;14.30;99.90
12307;DHT22;6216;51.146;7.008;2022-11-21T13:06:24;13.70;99.90
12307;DHT22;6216;51.146;7.008;2022-11-21T13:08:55;13.10;99.90
12307;DHT22;6216;51.146;7.008;2022-11-21T13:11:43;12.80;99.90
12307;DHT22;6216;51.146;7.008;2022-11-21T13:14:32;12.60;99.90
12307;DHT22;6216;51.146;7.008;2022-11-21T13:17:09;12.60;99.90
12307;DHT22;6216;51.146;7.008;2022-11-21T13:19:44;12.40;99.90
12307;DHT22;6216;51.146;7.008;2022-11-21T13:22:47;12.10;99.90
12307;DHT22;6216;51.146;7.008;2022-11-21T13:28:32;12.20;99.90
12307;DHT22;6216;51.146;7.008;2022-11-21T13:31:03;12.30;99.90
12307;DHT22;6216;51.146;7.008;2022-11-21T13:34:00;12.10;99.90
12307;DHT22;6216;51.146;7.008;2022-11-21T13:36:41;11.80;99.90
12307;DHT22;6216;51.146;7.008;2022-11-21T13:39:34;11.90;99.90
12307;DHT22;6216;51.146;7.008;2022-11-21T13:42:12;11.70;99.90
12307;DHT22;6216;51.146;7.008;2022-11-21T13:45:38;11.60;99.90
12307;DHT22;6216;51.146;7.008;2022-11-21T13:48:25;11.50;99.90
12307;DHT22;6216;51.146;7.008;2022-11-21T13:51:22;11.50;99.90
12307;DHT22;6216;51.146;7.008;2022-11-21T13:54:16;11.50;99.90
12307;DHT22;6216;51.146;7.008;2022-11-21T13:57:02;11.60;99.90
12307;DHT22;6216;51.146;7.008;2022-11-21T13:59:44;11.60;99.90
12307;DHT22;6216;51.146;7.008;2022-11-21T14:02:45;11.50;99.90
12307;DHT22;6216;51.146;7.008;2022-11-21T14:08:22;11.50;99.90
12307;DHT22;6216;51.146;7.008;2022-11-21T14:10:52;11.40;99.90
12307;DHT22;6216;51.146;7.008;2022-11-21T14:13:25;11.40;99.90
12307;DHT22;6216;51.146;7.008;2022-11-21T14:16:16;11.40;99.90
12307;DHT22;6216;51.146;7.008;2022-11-21T14:18:48;11.30;99.90
12307;DHT22;6216;51.146;7.008;2022-11-21T14:21:19;11.20;99.90
12307;DHT22;6216;51.146;7.008;2022-11-21T14:23:47;11.10;99.90
12307;DHT22;6216;51.146;7.008;2022-11-21T14:26:17;10.80;99.90
12307;DHT22;6216;51.146;7.008;2022-11-21T14:28:47;10.80;99.90
12307;DHT22;6216;51.146;7.008;2022-11-21T14:31:14;10.80;99.90
12307;DHT22;6216;51.146;7.008;2022-11-21T14:33:43;10.70;99.90
12307;DHT22;6216;51.146;7.008;2022-11-21T14:36:14;10.70;99.90
12307;DHT22;6216;51.146;7.008;2022-11-21T14:38:44;10.70;99.90
12307;DHT22;6216;51.146;7.008;2022-11-21T14:41:33;10.60;99.90
12307;DHT22;6216;51.146;7.008;2022-11-21T14:44:14;10.40;99.90
12307;DHT22;6216;51.146;7.008;2022-11-21T14:46:43;10.30;99.90
12307;DHT22;6216;51.146;7.008;2022-11-21T14:49:24;10.20;99.90
12307;DHT22;6216;51.146;7.008;2022-11-21T14:52:02;10.10;99.90
12307;DHT22;6216;51.146;7.008;2022-11-21T14:54:32;10.10;99.90
12307;DHT22;6216;51.146;7.008;2022-11-21T14:57:05;10.00;99.90
12307;DHT22;6216;51.146;7.008;2022-11-21T14:59:38;10.00;99.90
12307;DHT22;6216;51.146;7.008;2022-11-21T15:02:12;10.00;99.90
12307;DHT22;6216;51.146;7.008;2022-11-21T15:04:42;10.00;99.90
12307;DHT22;6216;51.146;7.008;2022-11-21T15:07:20;10.00;99.90
12307;DHT22;6216;51.146;7.008;2022-11-21T15:09:56;10.00;99.90
12307;DHT22;6216;51.146;7.008;2022-11-21T15:12:49;10.00;99.90
12307;DHT22;6216;51.146;7.008;2022-11-21T15:15:27;9.90;99.90
12307;DHT22;6216;51.146;7.008;2022-11-21T15:17:57;9.90;99.90
12307;DHT22;6216;51.146;7.008;2022-11-21T15:20:47;9.90;99.90
12307;DHT22;6216;51.146;7.008;2022-11-21T15:23:27;9.80;99.90
12307;DHT22;6216;51.146;7.008;2022-11-21T15:25:55;9.80;99.90
12307;DHT22;6216;51.146;7.008;2022-11-21T15:28:53;9.80;99.90
12307;DHT22;6216;51.146;7.008;2022-11-21T15:31:21;9.70;99.90
12307;DHT22;6216;51.146;7.008;2022-11-21T15:33:54;9.80;99.90
12307;DHT22;6216;51.146;7.008;2022-11-21T15:36:42;9.70;99.90
12307;DHT22;6216;51.146;7.008;2022-11-21T15:39:16;9.60;99.90
12307;DHT22;6216;51.146;7.008;2022-11-21T15:41:46;9.60;99.90
12307;DHT22;6216;51.146;7.008;2022-11-21T15:44:19;9.50;99.90
12307;DHT22;6216;51.146;7.008;2022-11-21T15:46:50;9.40;99.90
12307;DHT22;6216;51.146;7.008;2022-11-21T15:49:18;9.20;99.90
12307;DHT22;6216;51.146;7.008;2022-11-21T15:52:06;9.20;99.90
12307;DHT22;6216;51.146;7.008;2022-11-21T15:54:37;9.10;99.90
12307;DHT22;6216;51.146;7.008;2022-11-21T15:57:05;9.10;99.90
12307;DHT22;6216;51.146;7.008;2022-11-21T15:59:35;9.00;99.90
12307;DHT22;6216;51.146;7.008;2022-11-21T16:02:03;9.00;99.90
12307;DHT22;6216;51.146;7.008;2022-11-21T16:04:31;9.00;99.90
12307;DHT22;6216;51.146;7.008;2022-11-21T16:06:59;8.90;99.90
12307;DHT22;6216;51.146;7.008;2022-11-21T16:09:27;8.90;99.90
12307;DHT22;6216;51.146;7.008;2022-11-21T16:11:56;8.90;99.90
12307;DHT22;6216;51.146;7.008;2022-11-21T16:14:24;8.90;99.90
12307;DHT22;6216;51.146;7.008;2022-11-21T16:16:52;8.90;99.90
12307;DHT22;6216;51.146;7.008;2022-11-21T16:19:20;8.80;99.90
12307;DHT22;6216;51.146;7.008;2022-11-21T16:21:48;8.80;99.90
12307;DHT22;6216;51.146;7.008;2022-11-21T16:24:16;8.80;99.90
12307;DHT22;6216;51.146;7.008;2022-11-21T16:26:44;8.80;99.90
12307;DHT22;6216;51.146;7.008;2022-11-21T16:29:14;8.80;99.90
12307;DHT22;6216;51.146;7.008;2022-11-21T16:31:43;8.80;99.90
12307;DHT22;6216;51.146;7.008;2022-11-21T16:34:11;8.80;99.90
12307;DHT22;6216;51.146;7.008;2022-11-21T16:36:52;8.80;99.90
12307;DHT22;6216;51.146;7.008;2022-11-21T16:39:32;8.80;99.90
12307;DHT22;6216;51.146;7.008;2022-11-21T16:42:01;8.70;99.90
12307;DHT22;6216;51.146;7.008;2022-11-21T16:44:40;8.80;99.90
12307;DHT22;6216;51.146;7.008;2022-11-21T16:47:08;8.80;99.90